createdAt,value
2018-12-16T00:01:48.806Z,68.97
2018-12-16T00:04:15.572Z,70.39
2018-12-16T00:06:42.306Z,69.05
2018-12-16T00:09:09.073Z,70.16
2018-12-16T00:11:35.813Z,69.25
2018-12-16T00:14:02.588Z,70.02
2018-12-16T00:16:29.328Z,68.09
2018-12-16T00:18:56.123Z,69.06
2018-12-16T00:21:22.860Z,68.37
2018-12-16T00:23:49.629Z,69.99
2018-12-16T00:26:16.383Z,68.56
2018-12-16T00:28:43.136Z,70.45
2018-12-16T00:31:09.891Z,68.70
2018-12-16T00:33:36.681Z,70.12
2018-12-16T00:36:03.420Z,68.71
2018-12-16T00:55:35.839Z,68.74
2018-12-16T00:58:02.604Z,70.81
2018-12-16T01:00:29.407Z,69.21
2018-12-16T01:02:56.113Z,68.71
2018-12-16T01:05:22.849Z,68.09
2018-12-16T01:07:49.596Z,68.79
2018-12-16T01:10:16.359Z,68.24
2018-12-16T01:12:43.096Z,69.20
2018-12-16T01:15:09.860Z,68.61
2018-12-16T01:17:36.600Z,68.94
2018-12-16T01:20:04.616Z,69.69
2018-12-16T01:22:31.360Z,68.00
2018-12-16T01:24:58.160Z,69.77
2018-12-16T01:27:24.896Z,69.79
2018-12-16T01:29:51.664Z,68.82
2018-12-16T01:32:18.408Z,70.35
2018-12-16T01:34:45.165Z,69.29
2018-12-16T01:37:11.913Z,70.08
2018-12-16T01:39:38.673Z,68.96
2018-12-16T01:42:05.424Z,68.64
2018-12-16T01:44:32.190Z,69.94
2018-12-16T01:46:58.944Z,70.56
2018-12-16T01:49:25.728Z,70.40
2018-12-16T01:51:52.500Z,70.73
2018-12-16T01:54:19.260Z,70.27
2018-12-16T01:56:46.013Z,73.09
2018-12-16T01:59:12.776Z,73.73
2018-12-16T02:01:54.048Z,73.22
2018-12-16T02:04:20.825Z,74.71
2018-12-16T02:06:47.573Z,72.76
2018-12-16T02:09:14.339Z,73.65
2018-12-16T02:11:41.073Z,73.40
2018-12-16T02:14:07.848Z,71.91
2018-12-16T02:16:34.589Z,72.59
2018-12-16T02:19:01.448Z,71.01
2018-12-16T02:21:28.196Z,71.91
2018-12-16T02:23:54.960Z,72.00
2018-12-16T02:26:21.705Z,70.67
2018-12-16T02:28:48.464Z,71.88
2018-12-16T02:31:15.204Z,70.72
2018-12-16T02:33:41.969Z,69.88
2018-12-16T02:36:08.713Z,71.16
2018-12-16T02:38:35.468Z,70.99
2018-12-16T02:41:02.196Z,70.17
2018-12-16T02:43:28.965Z,71.44
2018-12-16T02:45:55.711Z,71.99
2018-12-16T02:48:22.469Z,71.94
2018-12-16T02:50:49.225Z,71.75
2018-12-16T02:53:15.976Z,72.20
2018-12-16T02:55:42.736Z,71.16
2018-12-16T02:58:09.480Z,71.48
2018-12-16T03:00:36.396Z,72.27
2018-12-16T03:03:03.141Z,71.50
2018-12-16T03:05:29.897Z,71.93
2018-12-16T03:07:56.648Z,72.58
2018-12-16T03:10:23.420Z,74.02
2018-12-16T03:12:50.143Z,74.49
2018-12-16T03:15:16.906Z,75.13
2018-12-16T03:17:43.652Z,77.26
2018-12-16T03:20:10.408Z,76.90
2018-12-16T03:22:37.166Z,77.13
2018-12-16T03:25:04.814Z,78.63
2018-12-16T03:27:31.553Z,77.81
2018-12-16T03:29:58.319Z,78.76
2018-12-16T03:32:25.046Z,78.30
2018-12-16T03:34:51.808Z,79.38
2018-12-16T03:37:18.541Z,79.20
2018-12-16T03:39:45.312Z,81.22
2018-12-16T03:42:12.045Z,81.45
2018-12-16T03:44:38.816Z,81.92
2018-12-16T03:47:05.560Z,82.95
2018-12-16T03:49:32.340Z,83.07
2018-12-16T03:51:59.092Z,85.24
2018-12-16T03:54:25.855Z,85.86
2018-12-16T03:56:52.587Z,86.32
2018-12-16T03:59:19.348Z,87.46
2018-12-16T04:01:51.849Z,87.76
2018-12-16T04:04:18.608Z,88.99
2018-12-16T04:06:45.344Z,88.49
2018-12-16T04:09:12.140Z,88.13
2018-12-16T04:11:38.888Z,89.66
2018-12-16T04:14:05.663Z,89.79
2018-12-16T04:16:32.403Z,88.75
2018-12-16T04:18:59.177Z,89.46
2018-12-16T04:21:25.934Z,89.54
2018-12-16T04:23:52.669Z,89.50
2018-12-16T04:26:19.445Z,88.65
2018-12-16T04:28:46.198Z,89.94
2018-12-16T04:31:13.031Z,89.01
2018-12-16T04:33:39.765Z,89.08
2018-12-16T04:36:06.548Z,89.83
2018-12-16T04:38:33.282Z,89.41
2018-12-16T04:41:00.048Z,89.85
2018-12-16T04:43:26.793Z,90.54
2018-12-16T04:45:53.539Z,91.59
2018-12-16T04:48:20.301Z,91.55
2018-12-16T04:50:47.091Z,92.91
2018-12-16T04:53:13.835Z,93.28
2018-12-16T04:55:40.578Z,92.39
2018-12-16T04:58:07.317Z,94.00
2018-12-16T05:00:34.076Z,94.43
2018-12-16T05:03:00.818Z,94.14
2018-12-16T05:05:27.579Z,95.20
2018-12-16T05:07:54.336Z,94.90
2018-12-16T05:10:27.660Z,93.93
2018-12-16T05:12:54.427Z,93.71
2018-12-16T05:15:21.204Z,94.08
2018-12-16T05:17:47.944Z,93.36
2018-12-16T05:20:14.712Z,93.30
2018-12-16T05:22:41.466Z,92.84
2018-12-16T05:25:08.213Z,94.07
2018-12-16T05:27:34.944Z,94.04
2018-12-16T05:30:01.727Z,94.86
2018-12-16T05:32:28.472Z,94.23
2018-12-16T05:34:55.240Z,94.21
2018-12-16T05:37:21.992Z,94.40
2018-12-16T05:39:48.755Z,92.88
2018-12-16T05:42:15.497Z,93.31
2018-12-16T05:44:42.255Z,92.72
2018-12-16T05:47:08.980Z,92.19
2018-12-16T05:49:35.760Z,92.82
2018-12-16T05:52:02.566Z,92.16
2018-12-16T05:54:29.316Z,91.47
2018-12-16T05:56:56.068Z,92.38
2018-12-16T05:59:22.832Z,91.77
2018-12-16T06:01:49.580Z,90.78
2018-12-16T06:04:16.355Z,91.95
2018-12-16T06:06:43.108Z,90.38
2018-12-16T06:09:09.853Z,90.42
2018-12-16T06:11:36.620Z,91.09
2018-12-16T06:14:03.363Z,90.61
2018-12-16T06:16:30.127Z,89.91
2018-12-16T06:18:56.964Z,91.18
2018-12-16T06:21:23.709Z,90.25
2018-12-16T06:23:55.587Z,89.75
2018-12-16T06:26:17.216Z,90.60
2018-12-16T06:28:43.966Z,89.43
2018-12-16T06:31:10.720Z,88.57
2018-12-16T06:33:37.460Z,88.55
2018-12-16T06:36:04.240Z,90.31
2018-12-16T06:38:31.072Z,89.92
2018-12-16T06:40:57.832Z,90.50
2018-12-16T06:43:24.596Z,91.38
2018-12-16T06:45:51.348Z,91.97
2018-12-16T06:48:18.091Z,93.23
2018-12-16T06:50:44.889Z,93.85
2018-12-16T06:53:11.580Z,94.93
2018-12-16T06:55:43.241Z,94.63
2018-12-16T06:58:05.252Z,95.81
2018-12-16T07:00:32.007Z,96.29
2018-12-16T07:02:58.772Z,95.66
2018-12-16T07:05:25.545Z,96.78
2018-12-16T07:07:52.293Z,96.63
2018-12-16T07:10:19.052Z,95.71
2018-12-16T07:12:45.792Z,95.23
2018-12-16T07:15:12.589Z,96.98
2018-12-16T07:17:39.584Z,96.58
2018-12-16T07:20:06.751Z,97.06
2018-12-16T07:22:33.487Z,96.88
2018-12-16T07:25:00.376Z,96.24
2018-12-16T07:27:27.116Z,96.27
2018-12-16T07:29:53.872Z,95.26
2018-12-16T07:32:20.608Z,94.33
2018-12-16T07:34:47.371Z,94.50
2018-12-16T07:37:18.981Z,93.37
2018-12-16T07:39:40.857Z,91.57
2018-12-16T07:42:07.632Z,93.33
2018-12-16T07:44:34.368Z,92.70
2018-12-16T07:48:24.473Z,92.09
2018-12-16T07:50:51.251Z,90.78
2018-12-16T07:53:18.012Z,88.84
2018-12-16T07:55:44.766Z,88.09
2018-12-16T07:58:11.492Z,89.44
2018-12-16T08:00:38.378Z,88.20
2018-12-16T08:03:05.000Z,88.11
2018-12-16T08:05:31.785Z,90.19
2018-12-16T08:07:58.539Z,90.30
2018-12-16T08:10:25.296Z,90.33
2018-12-16T08:12:52.036Z,90.90
2018-12-16T08:15:18.799Z,91.97
2018-12-16T08:17:45.536Z,90.75
2018-12-16T08:20:12.328Z,89.41
2018-12-16T08:22:39.156Z,89.90
2018-12-16T08:25:05.924Z,88.15
2018-12-16T08:27:32.736Z,87.72
2018-12-16T08:29:59.489Z,88.85
2018-12-16T08:32:26.244Z,88.71
2018-12-16T08:34:52.983Z,90.53
2018-12-16T08:37:19.828Z,89.08
2018-12-16T08:39:46.577Z,90.65
2018-12-16T08:42:13.340Z,90.24
2018-12-16T08:44:40.072Z,89.74
2018-12-16T08:47:06.861Z,89.64
2018-12-16T08:49:33.608Z,90.13
2018-12-16T08:52:00.396Z,88.88
2018-12-16T08:54:30.138Z,88.57
2018-12-16T08:56:53.892Z,87.92
2018-12-16T08:59:20.666Z,87.18
2018-12-16T09:01:47.451Z,87.36
2018-12-16T09:04:14.172Z,86.49
2018-12-16T09:06:40.937Z,87.00
2018-12-16T09:09:07.915Z,88.27
2018-12-16T09:11:34.685Z,87.07
2018-12-16T09:14:01.421Z,85.08
2018-12-16T09:16:28.188Z,84.62
2018-12-16T09:18:54.932Z,85.16
2018-12-16T09:21:21.681Z,84.10
2018-12-16T09:23:48.432Z,83.63
2018-12-16T09:26:15.221Z,83.37
2018-12-16T09:28:41.956Z,81.97
2018-12-16T09:31:08.720Z,83.00
2018-12-16T09:33:35.496Z,81.31
2018-12-16T09:36:02.411Z,82.28
2018-12-16T09:38:29.155Z,81.50
2018-12-16T09:40:56.006Z,82.32
2018-12-16T09:43:22.763Z,82.26
2018-12-16T09:45:49.670Z,80.62
2018-12-16T09:48:16.316Z,81.75
2018-12-16T09:50:43.120Z,81.81
2018-12-16T09:53:09.901Z,82.89
2018-12-16T09:55:36.661Z,82.95
2018-12-16T09:58:03.455Z,83.48
2018-12-16T10:00:30.205Z,84.62
2018-12-16T10:02:56.962Z,84.36
2018-12-16T10:05:23.716Z,82.82
2018-12-16T10:07:50.476Z,84.59
2018-12-16T10:10:17.240Z,84.42
2018-12-16T10:12:44.005Z,84.79
2018-12-16T10:15:10.848Z,84.35
2018-12-16T10:17:37.674Z,84.77
2018-12-16T10:20:06.101Z,84.48
2018-12-16T10:22:32.884Z,83.22
2018-12-16T10:24:59.657Z,83.00
2018-12-16T10:27:26.405Z,83.04
2018-12-16T10:29:53.218Z,81.79
2018-12-16T10:32:19.953Z,81.07
2018-12-16T10:34:46.745Z,80.89
2018-12-16T10:37:13.504Z,80.12
2018-12-16T10:39:40.557Z,80.96
2018-12-16T10:42:07.320Z,81.03
2018-12-16T10:44:34.217Z,81.14
2018-12-16T10:47:00.978Z,81.66
2018-12-16T10:49:27.776Z,78.70
2018-12-16T10:51:54.616Z,78.34
2018-12-16T10:54:21.540Z,75.55
2018-12-16T10:56:48.132Z,76.13
2018-12-16T10:59:14.928Z,77.16
2018-12-16T11:01:41.672Z,77.22
2018-12-16T11:04:08.432Z,79.20
2018-12-16T11:06:35.215Z,79.55
2018-12-16T11:09:01.992Z,81.44
2018-12-16T11:11:28.772Z,81.56
2018-12-16T11:13:55.525Z,81.40
2018-12-16T11:16:22.310Z,81.54
2018-12-16T11:18:49.041Z,80.67
2018-12-16T11:21:15.796Z,81.00
2018-12-16T11:23:42.544Z,80.51
2018-12-16T11:26:10.672Z,79.15
2018-12-16T11:28:37.413Z,80.08
2018-12-16T11:31:04.277Z,80.00
2018-12-16T11:33:31.046Z,80.21
2018-12-16T11:35:57.861Z,80.87
2018-12-16T11:38:24.627Z,80.14
2018-12-16T11:40:51.392Z,80.93
2018-12-16T11:43:18.225Z,80.66
2018-12-16T11:45:45.045Z,80.49
2018-12-16T11:48:11.789Z,80.52
2018-12-16T11:50:38.640Z,82.62
2018-12-16T11:53:05.383Z,80.35
2018-12-16T11:55:32.244Z,81.88
2018-12-16T11:57:58.985Z,82.97
2018-12-16T12:00:25.736Z,83.80
2018-12-16T12:02:52.496Z,85.36
2018-12-16T12:05:19.256Z,84.37
2018-12-16T12:07:46.079Z,84.12
2018-12-16T12:10:12.840Z,82.29
2018-12-16T12:12:39.584Z,82.88
2018-12-16T12:15:06.352Z,82.60
2018-12-16T12:17:33.101Z,80.72
2018-12-16T12:19:59.850Z,81.16
2018-12-16T12:22:26.596Z,81.70
2018-12-16T12:24:53.380Z,82.55
2018-12-16T12:27:20.130Z,83.73
2018-12-16T12:29:46.920Z,84.17
2018-12-16T12:32:13.733Z,82.81
2018-12-16T12:34:40.485Z,84.14
2018-12-16T12:37:07.308Z,84.11
2018-12-16T12:39:34.052Z,83.95
2018-12-16T12:42:00.812Z,84.32
2018-12-16T12:44:27.576Z,85.75
2018-12-16T12:46:54.333Z,86.30
2018-12-16T12:49:21.092Z,86.70
2018-12-16T12:51:47.872Z,85.95
2018-12-16T12:54:14.614Z,86.61
2018-12-16T12:56:41.400Z,86.88
2018-12-16T12:59:08.165Z,86.21
2018-12-16T13:01:35.003Z,85.66
2018-12-16T13:04:01.751Z,83.54
2018-12-16T13:06:28.520Z,84.48
2018-12-16T13:08:55.304Z,84.09
2018-12-16T13:11:22.099Z,84.42
2018-12-16T13:13:48.830Z,84.42
2018-12-16T13:16:15.593Z,84.08
2018-12-16T13:18:42.364Z,84.31
2018-12-16T13:21:09.136Z,85.13
2018-12-16T13:23:35.888Z,85.96
2018-12-16T13:26:03.751Z,86.74
2018-12-16T13:28:30.493Z,85.40
2018-12-16T13:30:57.488Z,86.47
2018-12-16T13:33:24.260Z,86.51
2018-12-16T13:35:51.108Z,84.84
2018-12-16T13:38:17.844Z,83.81
2018-12-16T13:40:44.612Z,83.60
2018-12-16T13:43:11.369Z,83.44
2018-12-16T13:45:38.124Z,84.02
2018-12-16T13:48:04.898Z,85.26
2018-12-16T13:50:31.653Z,86.73
2018-12-16T13:52:58.413Z,87.87
2018-12-16T13:55:25.160Z,87.28
2018-12-16T13:57:51.947Z,88.68
2018-12-16T14:00:19.993Z,88.26
2018-12-16T14:02:45.876Z,87.75
2018-12-16T14:05:12.640Z,87.94
2018-12-16T14:07:39.407Z,87.09
2018-12-16T14:10:06.264Z,88.29
2018-12-16T14:12:33.030Z,89.40
2018-12-16T14:14:59.769Z,89.42
2018-12-16T14:17:26.532Z,90.04
2018-12-16T14:19:53.272Z,87.56
2018-12-16T14:22:20.041Z,88.02
2018-12-16T14:24:46.785Z,87.77
2018-12-16T14:27:13.565Z,87.95
2018-12-16T14:29:40.309Z,88.03
2018-12-16T14:32:07.100Z,88.46
2018-12-16T14:34:33.847Z,87.04
2018-12-16T14:37:00.708Z,86.31
2018-12-16T14:39:27.460Z,85.36
2018-12-16T14:41:54.216Z,86.54
2018-12-16T14:44:20.964Z,87.16
2018-12-16T14:46:47.720Z,88.05
2018-12-16T14:49:14.479Z,88.08
2018-12-16T14:51:41.244Z,88.78
2018-12-16T14:54:07.987Z,89.25
2018-12-16T14:56:34.741Z,89.57
2018-12-16T14:59:01.494Z,90.13
2018-12-16T15:01:28.245Z,89.84
2018-12-16T15:03:55.010Z,89.36
2018-12-16T15:06:21.752Z,89.94
2018-12-16T15:08:48.528Z,89.91
2018-12-16T15:11:15.288Z,90.48
2018-12-16T15:13:42.037Z,90.25
2018-12-16T15:16:10.246Z,90.28
2018-12-16T15:18:35.544Z,90.77
2018-12-16T15:21:02.295Z,90.85
2018-12-16T15:23:29.066Z,91.26
2018-12-16T15:26:01.892Z,91.56
2018-12-16T15:28:22.586Z,91.23
2018-12-16T15:30:49.332Z,90.83
2018-12-16T15:33:16.120Z,90.46
2018-12-16T15:35:42.886Z,91.26
2018-12-16T15:38:09.744Z,91.27
2018-12-16T15:40:36.521Z,92.25
2018-12-16T15:43:03.288Z,92.99
2018-12-16T15:45:30.048Z,93.35
2018-12-16T15:47:56.820Z,93.17
2018-12-16T15:50:23.564Z,93.36
2018-12-16T15:52:50.337Z,93.25
2018-12-16T15:55:17.096Z,93.26
2018-12-16T15:57:43.956Z,92.56
2018-12-16T16:00:10.733Z,91.47
2018-12-16T16:02:37.503Z,90.07
2018-12-16T16:05:04.457Z,91.12
2018-12-16T16:07:31.232Z,91.77
2018-12-16T16:09:58.028Z,92.05
2018-12-16T16:12:24.780Z,90.34
2018-12-16T16:14:51.539Z,91.84
2018-12-16T16:17:18.397Z,92.43
2018-12-16T16:19:45.148Z,92.47
2018-12-16T16:22:11.904Z,92.33
2018-12-16T16:24:38.676Z,93.18
2018-12-16T16:27:05.445Z,93.17
2018-12-16T16:29:32.211Z,92.81
2018-12-16T16:31:58.965Z,93.14
2018-12-16T16:34:25.737Z,91.57
2018-12-16T16:36:52.491Z,93.51
2018-12-16T16:39:19.268Z,94.70
2018-12-16T16:41:46.011Z,94.81
2018-12-16T16:44:14.366Z,93.46
2018-12-16T16:46:39.549Z,93.93
2018-12-16T16:49:06.291Z,93.84
2018-12-16T16:51:33.040Z,94.65
2018-12-16T16:53:59.905Z,94.69
2018-12-16T16:56:26.660Z,94.79
2018-12-16T16:58:53.438Z,93.19
2018-12-16T17:01:20.214Z,91.24
2018-12-16T17:03:46.997Z,92.83
2018-12-16T17:06:13.744Z,94.41
2018-12-16T17:08:40.577Z,95.84
2018-12-16T17:11:07.346Z,97.86
2018-12-16T17:13:34.122Z,97.90
2018-12-16T17:16:00.953Z,98.74
2018-12-16T17:18:27.737Z,99.08
2018-12-16T17:20:54.501Z,98.98
2018-12-16T17:23:21.265Z,99.70
2018-12-16T17:25:48.562Z,100.00
2018-12-16T17:28:14.821Z,99.68
2018-12-16T17:30:41.568Z,99.10
2018-12-16T17:33:08.394Z,99.13
2018-12-16T17:35:35.475Z,99.25
2018-12-16T17:38:02.250Z,99.10
2018-12-16T17:40:28.989Z,96.94
2018-12-16T17:42:55.845Z,94.96
2018-12-16T17:45:22.580Z,92.73
2018-12-16T17:47:49.340Z,91.71
2018-12-16T17:50:16.105Z,93.37
2018-12-16T17:52:42.892Z,92.48
2018-12-16T17:55:09.633Z,91.10
2018-12-16T17:57:36.409Z,94.05
2018-12-16T18:00:03.494Z,92.83
2018-12-16T18:02:30.253Z,94.60
2018-12-16T18:04:57.029Z,93.14
2018-12-16T18:07:23.779Z,91.07
2018-12-16T18:09:50.562Z,92.78
2018-12-16T18:12:17.295Z,93.26
2018-12-16T18:14:44.064Z,93.77
2018-12-16T18:17:10.839Z,93.64
2018-12-16T18:19:37.649Z,93.96
2018-12-16T18:22:04.452Z,94.02
2018-12-16T18:24:31.238Z,92.18
2018-12-16T18:26:58.006Z,93.59
2018-12-16T18:29:24.775Z,91.90
2018-12-16T18:31:51.520Z,93.51
2018-12-16T18:34:18.308Z,94.34
2018-12-16T18:36:45.060Z,91.80
2018-12-16T18:39:11.846Z,92.48
2018-12-16T18:41:38.605Z,92.88
2018-12-16T18:44:05.398Z,90.54
2018-12-16T18:46:32.187Z,89.08
2018-12-16T18:48:58.954Z,89.29
2018-12-16T18:51:25.704Z,91.24
2018-12-16T18:53:52.468Z,92.36
2018-12-16T18:56:19.240Z,93.30
2018-12-16T18:58:46.038Z,93.51
2018-12-16T19:01:13.120Z,92.10
2018-12-16T19:03:39.995Z,92.79
2018-12-16T19:06:06.811Z,93.62
2018-12-16T19:08:33.592Z,93.87
2018-12-16T19:11:00.356Z,93.14
2018-12-16T19:13:27.165Z,92.92
2018-12-16T19:15:53.925Z,93.84
2018-12-16T19:18:20.706Z,92.58
2018-12-16T19:20:47.448Z,91.56
2018-12-16T19:23:14.237Z,92.17
2018-12-16T19:25:42.348Z,91.46
2018-12-16T19:28:07.807Z,92.24
2018-12-16T19:30:34.545Z,92.81
2018-12-16T19:33:01.300Z,92.70
2018-12-16T19:35:28.093Z,92.94
2018-12-16T19:37:54.860Z,93.46
2018-12-16T19:40:21.619Z,92.82
2018-12-16T19:42:48.377Z,93.27
2018-12-16T19:45:15.163Z,93.66
2018-12-16T19:47:41.925Z,93.44
2018-12-16T19:50:08.716Z,93.81
2018-12-16T19:52:35.632Z,91.87
2018-12-16T19:55:02.440Z,92.23
2018-12-16T19:57:29.340Z,93.22
2018-12-16T19:59:56.109Z,92.67
2018-12-16T20:02:22.861Z,93.59
2018-12-16T20:04:55.268Z,93.63
2018-12-16T20:07:22.009Z,93.82
2018-12-16T20:09:48.780Z,92.92
2018-12-16T20:12:16.578Z,93.90
2018-12-16T20:14:42.363Z,95.29
2018-12-16T20:17:09.105Z,94.66
2018-12-16T20:19:35.856Z,94.74
2018-12-16T20:22:02.677Z,94.01
2018-12-16T20:24:29.405Z,94.34
2018-12-16T20:26:56.139Z,94.99
2018-12-16T20:29:22.908Z,94.81
2018-12-16T20:31:49.681Z,95.17
2018-12-16T20:34:16.452Z,94.91
2018-12-16T20:36:43.216Z,94.71
2018-12-16T20:39:09.988Z,94.75
2018-12-16T20:41:36.744Z,94.98
2018-12-16T20:44:03.537Z,95.55
2018-12-16T20:46:30.293Z,95.86
2018-12-16T20:48:57.069Z,96.22
2018-12-16T20:51:23.945Z,95.71
2018-12-16T20:53:50.705Z,95.49
2018-12-16T20:56:17.461Z,94.55
2018-12-16T20:58:44.224Z,94.65
2018-12-16T21:01:10.972Z,95.09
2018-12-16T21:03:37.745Z,95.33
2018-12-16T21:06:04.485Z,95.11
2018-12-16T21:08:31.245Z,95.71
2018-12-16T21:11:17.605Z,95.57
2018-12-16T21:13:50.196Z,96.01
2018-12-16T21:16:22.788Z,94.39
2018-12-16T21:18:49.584Z,95.08
2018-12-16T21:21:16.372Z,95.77
2018-12-16T21:23:43.136Z,96.08
2018-12-16T21:26:10.000Z,96.29
2018-12-16T21:28:36.769Z,96.29
2018-12-16T21:31:03.592Z,96.32
2018-12-16T21:33:30.349Z,94.75
2018-12-16T21:35:57.116Z,94.98
2018-12-16T21:38:23.859Z,94.60
2018-12-16T21:40:50.628Z,95.10
2018-12-16T21:43:17.380Z,94.86
2018-12-16T21:45:44.185Z,94.76
2018-12-16T21:48:10.878Z,94.71
2018-12-16T21:50:37.648Z,94.68
2018-12-16T21:53:04.392Z,94.91
2018-12-16T21:55:31.150Z,94.77
2018-12-16T21:57:57.912Z,94.86
2018-12-16T22:00:24.685Z,94.72
2018-12-16T22:02:51.425Z,94.97
2018-12-16T22:05:18.416Z,94.24
2018-12-16T22:07:45.160Z,94.72
2018-12-16T22:10:11.920Z,94.69
2018-12-16T22:12:38.671Z,94.63
2018-12-16T22:15:05.558Z,95.32
2018-12-16T22:17:32.288Z,95.33
2018-12-16T22:19:59.059Z,93.91
2018-12-16T22:22:25.800Z,94.24
2018-12-16T22:24:52.586Z,94.78
2018-12-16T22:27:19.323Z,95.32
2018-12-16T22:29:46.092Z,95.40
2018-12-16T22:32:12.960Z,93.42
2018-12-16T22:34:39.728Z,93.41
2018-12-16T22:37:06.476Z,94.13
2018-12-16T22:39:33.352Z,95.07
2018-12-16T22:42:00.119Z,95.09
2018-12-16T22:44:26.891Z,93.03
2018-12-16T22:46:53.648Z,93.40
2018-12-16T22:49:20.409Z,93.19
2018-12-16T22:51:47.184Z,93.00
2018-12-16T22:54:13.920Z,93.35
2018-12-16T22:56:40.669Z,93.63
2018-12-16T22:59:07.449Z,93.31
2018-12-16T23:01:34.212Z,93.21
2018-12-16T23:04:00.977Z,93.57
2018-12-16T23:06:27.759Z,92.70
2018-12-16T23:08:54.631Z,93.50
2018-12-16T23:11:21.387Z,94.49
2018-12-16T23:13:48.135Z,94.83
2018-12-16T23:16:14.900Z,93.76
2018-12-16T23:18:41.640Z,92.85
2018-12-16T23:21:08.413Z,94.79
2018-12-16T23:23:35.206Z,95.35
2018-12-16T23:26:02.125Z,96.37
2018-12-16T23:28:28.876Z,95.45
2018-12-16T23:30:55.624Z,94.39
2018-12-16T23:33:22.392Z,92.73
2018-12-16T23:35:49.137Z,93.63
2018-12-16T23:38:15.912Z,92.24
2018-12-16T23:40:42.654Z,93.73
2018-12-16T23:43:09.408Z,94.21
2018-12-16T23:45:36.169Z,95.11
2018-12-16T23:48:02.986Z,92.72
2018-12-16T23:50:29.733Z,93.71
2018-12-16T23:52:56.496Z,94.98
2018-12-16T23:55:23.246Z,94.94
2018-12-16T23:57:50.012Z,95.24
